Bond, Louisiana
Current Conditions -  °F | °C
As of 3:15 PM on Friday 24 Oct 2014 (Local Time) from KACP Reporting Station
Clear Clear  
Wind Chill: 75°   Ceiling: Unl
Heat Index: 75°   Visibility: 10mi
Dew Point: 49°   Wind: 3mph
Humidity: 40%   Direction: 320°NW
Pressure: 30.09"   Gusts: NA
Location:  30.8164°N, 92.6914°W
Report Text: KACP 242015Z AUTO 32003KT 10SM CLR 24/10 A3009 RMK AO2 T02410096
Loading
Personal Weather Stations






























Interactive Weather Map
Tropical Storm Tracking
New forecast layout! Learn more

10-Day Weather Forecast

Advertisements
Track Severe Weather on mobile